sensor_id;sensor_type;location;lat;lon;timestamp;temperature;humidity
24645;DHT22;12780;45.502;9.146;2023-04-06T00:01:26;9.00;97.40
24645;DHT22;12780;45.502;9.146;2023-04-06T00:03:52;9.10;97.40
24645;DHT22;12780;45.502;9.146;2023-04-06T00:06:17;9.00;97.60
24645;DHT22;12780;45.502;9.146;2023-04-06T00:08:43;9.10;97.80
24645;DHT22;12780;45.502;9.146;2023-04-06T00:11:10;9.00;97.20
24645;DHT22;12780;45.502;9.146;2023-04-06T00:13:35;9.00;97.40
24645;DHT22;12780;45.502;9.146;2023-04-06T00:16:01;9.00;97.40
24645;DHT22;12780;45.502;9.146;2023-04-06T00:18:26;8.90;97.40
24645;DHT22;12780;45.502;9.146;2023-04-06T00:20:52;8.90;97.30
24645;DHT22;12780;45.502;9.146;2023-04-06T00:23:18;8.90;97.30
24645;DHT22;12780;45.502;9.146;2023-04-06T00:25:43;8.80;97.30
24645;DHT22;12780;45.502;9.146;2023-04-06T00:28:09;8.80;97.40
24645;DHT22;12780;45.502;9.146;2023-04-06T00:30:35;8.80;97.40
24645;DHT22;12780;45.502;9.146;2023-04-06T00:33:00;8.70;97.40
24645;DHT22;12780;45.502;9.146;2023-04-06T00:35:26;8.80;97.50
24645;DHT22;12780;45.502;9.146;2023-04-06T00:37:52;8.80;97.50
24645;DHT22;12780;45.502;9.146;2023-04-06T00:40:17;8.80;97.40
24645;DHT22;12780;45.502;9.146;2023-04-06T00:42:43;8.80;97.30
24645;DHT22;12780;45.502;9.146;2023-04-06T00:45:09;8.80;97.30
24645;DHT22;12780;45.502;9.146;2023-04-06T00:47:35;8.80;97.20
24645;DHT22;12780;45.502;9.146;2023-04-06T00:50:01;8.80;97.20
24645;DHT22;12780;45.502;9.146;2023-04-06T00:52:27;8.80;97.20
24645;DHT22;12780;45.502;9.146;2023-04-06T00:54:53;8.80;97.10
24645;DHT22;12780;45.502;9.146;2023-04-06T00:57:19;8.80;97.10
24645;DHT22;12780;45.502;9.146;2023-04-06T00:59:45;8.70;97.10
24645;DHT22;12780;45.502;9.146;2023-04-06T01:02:11;8.60;97.00
24645;DHT22;12780;45.502;9.146;2023-04-06T01:04:37;8.60;97.20
24645;DHT22;12780;45.502;9.146;2023-04-06T01:07:02;8.60;97.30
24645;DHT22;12780;45.502;9.146;2023-04-06T01:09:29;8.60;97.40
24645;DHT22;12780;45.502;9.146;2023-04-06T01:11:58;8.70;97.50
24645;DHT22;12780;45.502;9.146;2023-04-06T01:14:24;8.60;97.40
24645;DHT22;12780;45.502;9.146;2023-04-06T01:16:51;8.60;97.50
24645;DHT22;12780;45.502;9.146;2023-04-06T01:19:17;8.60;97.60
24645;DHT22;12780;45.502;9.146;2023-04-06T01:21:42;8.60;97.60
24645;DHT22;12780;45.502;9.146;2023-04-06T01:24:08;8.50;97.70
24645;DHT22;12780;45.502;9.146;2023-04-06T01:26:35;8.50;97.80
24645;DHT22;12780;45.502;9.146;2023-04-06T01:29:02;8.50;97.90
24645;DHT22;12780;45.502;9.146;2023-04-06T01:31:28;8.50;97.90
24645;DHT22;12780;45.502;9.146;2023-04-06T01:33:54;8.40;98.00
24645;DHT22;12780;45.502;9.146;2023-04-06T01:36:20;8.40;98.00
24645;DHT22;12780;45.502;9.146;2023-04-06T01:38:46;8.40;98.10
24645;DHT22;12780;45.502;9.146;2023-04-06T01:41:12;8.40;98.20
24645;DHT22;12780;45.502;9.146;2023-04-06T01:43:37;8.40;98.20
24645;DHT22;12780;45.502;9.146;2023-04-06T01:46:03;8.50;99.90
24645;DHT22;12780;45.502;9.146;2023-04-06T01:48:29;8.50;98.20
24645;DHT22;12780;45.502;9.146;2023-04-06T01:50:55;8.50;98.10
24645;DHT22;12780;45.502;9.146;2023-04-06T01:53:21;8.40;98.20
24645;DHT22;12780;45.502;9.146;2023-04-06T01:55:46;8.40;98.40
24645;DHT22;12780;45.502;9.146;2023-04-06T01:58:12;8.40;98.40
24645;DHT22;12780;45.502;9.146;2023-04-06T02:00:38;8.40;98.40
24645;DHT22;12780;45.502;9.146;2023-04-06T02:03:03;8.40;98.50
24645;DHT22;12780;45.502;9.146;2023-04-06T02:05:30;8.50;98.50
24645;DHT22;12780;45.502;9.146;2023-04-06T02:07:56;8.50;98.40
24645;DHT22;12780;45.502;9.146;2023-04-06T02:10:22;8.50;98.40
24645;DHT22;12780;45.502;9.146;2023-04-06T02:12:48;8.50;98.50
24645;DHT22;12780;45.502;9.146;2023-04-06T02:15:14;8.40;98.50
24645;DHT22;12780;45.502;9.146;2023-04-06T02:17:40;8.50;98.60
24645;DHT22;12780;45.502;9.146;2023-04-06T02:20:06;8.60;98.60
24645;DHT22;12780;45.502;9.146;2023-04-06T02:22:32;8.50;98.60
24645;DHT22;12780;45.502;9.146;2023-04-06T02:24:58;8.50;98.40
24645;DHT22;12780;45.502;9.146;2023-04-06T02:27:23;8.50;98.50
24645;DHT22;12780;45.502;9.146;2023-04-06T02:29:49;8.50;98.50
24645;DHT22;12780;45.502;9.146;2023-04-06T02:32:14;8.30;98.30
24645;DHT22;12780;45.502;9.146;2023-04-06T02:34:40;8.40;98.70
24645;DHT22;12780;45.502;9.146;2023-04-06T02:37:06;8.40;98.70
24645;DHT22;12780;45.502;9.146;2023-04-06T02:39:31;8.30;98.50
24645;DHT22;12780;45.502;9.146;2023-04-06T02:41:57;8.30;98.70
24645;DHT22;12780;45.502;9.146;2023-04-06T02:44:23;8.30;99.00
24645;DHT22;12780;45.502;9.146;2023-04-06T02:46:48;8.30;98.80
24645;DHT22;12780;45.502;9.146;2023-04-06T02:49:14;8.20;98.80
24645;DHT22;12780;45.502;9.146;2023-04-06T02:51:39;8.20;98.90
24645;DHT22;12780;45.502;9.146;2023-04-06T02:54:05;8.00;98.90
24645;DHT22;12780;45.502;9.146;2023-04-06T02:56:31;8.10;99.00
24645;DHT22;12780;45.502;9.146;2023-04-06T02:58:56;8.00;99.00
24645;DHT22;12780;45.502;9.146;2023-04-06T03:01:22;8.00;99.20
24645;DHT22;12780;45.502;9.146;2023-04-06T03:03:47;8.00;98.90
24645;DHT22;12780;45.502;9.146;2023-04-06T03:06:13;7.90;98.90
24645;DHT22;12780;45.502;9.146;2023-04-06T03:08:39;8.00;99.20
24645;DHT22;12780;45.502;9.146;2023-04-06T03:11:04;8.00;99.00
24645;DHT22;12780;45.502;9.146;2023-04-06T03:13:31;8.00;98.90
24645;DHT22;12780;45.502;9.146;2023-04-06T03:15:56;8.00;98.70
24645;DHT22;12780;45.502;9.146;2023-04-06T03:18:23;8.00;98.70
24645;DHT22;12780;45.502;9.146;2023-04-06T03:20:49;7.90;98.80
24645;DHT22;12780;45.502;9.146;2023-04-06T03:23:15;7.90;98.70
24645;DHT22;12780;45.502;9.146;2023-04-06T03:25:41;8.00;98.90
24645;DHT22;12780;45.502;9.146;2023-04-06T03:28:07;7.90;98.60
24645;DHT22;12780;45.502;9.146;2023-04-06T03:30:34;7.90;98.80
24645;DHT22;12780;45.502;9.146;2023-04-06T03:32:59;7.90;98.80
24645;DHT22;12780;45.502;9.146;2023-04-06T03:35:25;7.90;98.80
24645;DHT22;12780;45.502;9.146;2023-04-06T03:37:51;8.00;98.80
24645;DHT22;12780;45.502;9.146;2023-04-06T03:40:16;7.70;98.70
24645;DHT22;12780;45.502;9.146;2023-04-06T03:42:42;7.80;98.80
24645;DHT22;12780;45.502;9.146;2023-04-06T03:45:08;7.80;98.90
24645;DHT22;12780;45.502;9.146;2023-04-06T03:47:34;7.80;99.10
24645;DHT22;12780;45.502;9.146;2023-04-06T03:49:59;7.80;99.30
24645;DHT22;12780;45.502;9.146;2023-04-06T03:52:25;7.90;99.60
24645;DHT22;12780;45.502;9.146;2023-04-06T03:54:51;7.90;99.60
24645;DHT22;12780;45.502;9.146;2023-04-06T03:57:17;8.00;99.60
24645;DHT22;12780;45.502;9.146;2023-04-06T03:59:42;7.90;99.40
24645;DHT22;12780;45.502;9.146;2023-04-06T04:02:08;7.90;99.60
24645;DHT22;12780;45.502;9.146;2023-04-06T04:04:33;7.90;99.60
24645;DHT22;12780;45.502;9.146;2023-04-06T04:06:59;7.80;99.70
24645;DHT22;12780;45.502;9.146;2023-04-06T04:09:25;7.80;99.60
24645;DHT22;12780;45.502;9.146;2023-04-06T04:11:51;7.70;99.80
24645;DHT22;12780;45.502;9.146;2023-04-06T04:14:16;7.90;99.90
24645;DHT22;12780;45.502;9.146;2023-04-06T04:16:42;7.90;99.90
24645;DHT22;12780;45.502;9.146;2023-04-06T04:19:07;8.10;99.90
24645;DHT22;12780;45.502;9.146;2023-04-06T04:21:33;8.10;99.90
24645;DHT22;12780;45.502;9.146;2023-04-06T04:23:59;8.00;99.90
24645;DHT22;12780;45.502;9.146;2023-04-06T04:26:24;8.10;99.90
24645;DHT22;12780;45.502;9.146;2023-04-06T04:28:50;8.10;99.90
24645;DHT22;12780;45.502;9.146;2023-04-06T04:31:16;8.10;99.90
24645;DHT22;12780;45.502;9.146;2023-04-06T04:33:43;7.90;99.90
24645;DHT22;12780;45.502;9.146;2023-04-06T04:36:09;8.00;99.90
24645;DHT22;12780;45.502;9.146;2023-04-06T04:38:35;8.00;99.90
24645;DHT22;12780;45.502;9.146;2023-04-06T04:41:01;8.00;99.90
24645;DHT22;12780;45.502;9.146;2023-04-06T04:43:28;8.00;99.90
24645;DHT22;12780;45.502;9.146;2023-04-06T04:45:53;8.00;99.90
24645;DHT22;12780;45.502;9.146;2023-04-06T04:48:19;8.00;99.90
24645;DHT22;12780;45.502;9.146;2023-04-06T04:50:44;8.00;99.90
24645;DHT22;12780;45.502;9.146;2023-04-06T04:53:10;8.00;99.90
24645;DHT22;12780;45.502;9.146;2023-04-06T04:55:35;8.00;99.90
24645;DHT22;12780;45.502;9.146;2023-04-06T04:58:01;8.00;99.90
24645;DHT22;12780;45.502;9.146;2023-04-06T05:00:27;8.00;99.90
24645;DHT22;12780;45.502;9.146;2023-04-06T05:02:53;8.00;99.90
24645;DHT22;12780;45.502;9.146;2023-04-06T05:05:19;7.90;99.90
24645;DHT22;12780;45.502;9.146;2023-04-06T05:07:44;8.10;99.90
24645;DHT22;12780;45.502;9.146;2023-04-06T05:10:11;8.00;99.90
24645;DHT22;12780;45.502;9.146;2023-04-06T05:12:37;7.90;99.90
24645;DHT22;12780;45.502;9.146;2023-04-06T05:15:03;7.90;99.90
24645;DHT22;12780;45.502;9.146;2023-04-06T05:17:29;7.90;99.90
24645;DHT22;12780;45.502;9.146;2023-04-06T05:19:55;7.90;99.90
24645;DHT22;12780;45.502;9.146;2023-04-06T05:22:20;8.00;99.90
24645;DHT22;12780;45.502;9.146;2023-04-06T05:24:46;7.90;99.90
24645;DHT22;12780;45.502;9.146;2023-04-06T05:27:12;7.80;99.90
24645;DHT22;12780;45.502;9.146;2023-04-06T05:29:37;7.80;99.90
24645;DHT22;12780;45.502;9.146;2023-04-06T05:32:03;7.80;99.90
24645;DHT22;12780;45.502;9.146;2023-04-06T05:34:29;7.80;99.90
24645;DHT22;12780;45.502;9.146;2023-04-06T05:36:54;7.80;99.90
24645;DHT22;12780;45.502;9.146;2023-04-06T05:39:20;7.90;99.90
24645;DHT22;12780;45.502;9.146;2023-04-06T05:41:46;7.80;99.90
24645;DHT22;12780;45.502;9.146;2023-04-06T05:44:12;7.70;99.90
24645;DHT22;12780;45.502;9.146;2023-04-06T05:46:37;7.70;99.90
24645;DHT22;12780;45.502;9.146;2023-04-06T05:49:03;7.60;99.90
24645;DHT22;12780;45.502;9.146;2023-04-06T05:51:28;7.60;99.90
24645;DHT22;12780;45.502;9.146;2023-04-06T05:53:54;7.70;99.90
24645;DHT22;12780;45.502;9.146;2023-04-06T05:56:20;7.70;99.90
24645;DHT22;12780;45.502;9.146;2023-04-06T05:58:46;7.60;99.90
24645;DHT22;12780;45.502;9.146;2023-04-06T06:01:11;7.80;99.90
24645;DHT22;12780;45.502;9.146;2023-04-06T06:03:37;7.70;99.90
24645;DHT22;12780;45.502;9.146;2023-04-06T06:06:03;7.70;99.90
24645;DHT22;12780;45.502;9.146;2023-04-06T06:08:30;7.70;99.90
24645;DHT22;12780;45.502;9.146;2023-04-06T06:10:56;7.70;99.90
24645;DHT22;12780;45.502;9.146;2023-04-06T06:13:23;7.80;99.90
24645;DHT22;12780;45.502;9.146;2023-04-06T06:15:49;7.90;99.90
24645;DHT22;12780;45.502;9.146;2023-04-06T06:18:15;7.80;99.90
24645;DHT22;12780;45.502;9.146;2023-04-06T06:20:40;7.80;99.90
24645;DHT22;12780;45.502;9.146;2023-04-06T06:23:06;7.90;99.90
24645;DHT22;12780;45.502;9.146;2023-04-06T06:25:32;7.90;99.90
24645;DHT22;12780;45.502;9.146;2023-04-06T06:27:58;7.90;99.90
24645;DHT22;12780;45.502;9.146;2023-04-06T06:30:24;8.00;99.90
24645;DHT22;12780;45.502;9.146;2023-04-06T06:32:50;8.00;99.90
24645;DHT22;12780;45.502;9.146;2023-04-06T06:35:16;8.10;99.90
24645;DHT22;12780;45.502;9.146;2023-04-06T06:37:42;8.10;99.90
24645;DHT22;12780;45.502;9.146;2023-04-06T06:40:09;8.30;99.90
24645;DHT22;12780;45.502;9.146;2023-04-06T06:42:35;8.30;99.90
24645;DHT22;12780;45.502;9.146;2023-04-06T06:45:01;8.50;99.90
24645;DHT22;12780;45.502;9.146;2023-04-06T06:47:27;8.60;99.90
24645;DHT22;12780;45.502;9.146;2023-04-06T06:49:52;8.70;99.90
24645;DHT22;12780;45.502;9.146;2023-04-06T06:52:18;9.00;99.90
24645;DHT22;12780;45.502;9.146;2023-04-06T06:54:44;9.10;99.90
24645;DHT22;12780;45.502;9.146;2023-04-06T06:57:09;9.00;99.90
24645;DHT22;12780;45.502;9.146;2023-04-06T06:59:35;9.10;99.80
24645;DHT22;12780;45.502;9.146;2023-04-06T07:02:01;9.20;99.50
24645;DHT22;12780;45.502;9.146;2023-04-06T07:04:26;9.30;99.30
24645;DHT22;12780;45.502;9.146;2023-04-06T07:06:52;9.30;99.00
24645;DHT22;12780;45.502;9.146;2023-04-06T07:09:18;9.40;99.20
24645;DHT22;12780;45.502;9.146;2023-04-06T07:11:44;9.50;98.70
24645;DHT22;12780;45.502;9.146;2023-04-06T07:14:09;9.60;98.80
24645;DHT22;12780;45.502;9.146;2023-04-06T07:16:36;9.70;98.20
24645;DHT22;12780;45.502;9.146;2023-04-06T07:19:02;9.80;98.20
24645;DHT22;12780;45.502;9.146;2023-04-06T07:21:28;9.80;97.50
24645;DHT22;12780;45.502;9.146;2023-04-06T07:23:53;10.00;98.40
24645;DHT22;12780;45.502;9.146;2023-04-06T07:26:19;10.10;96.70
24645;DHT22;12780;45.502;9.146;2023-04-06T07:28:45;10.20;96.70
24645;DHT22;12780;45.502;9.146;2023-04-06T07:31:11;10.30;96.70
24645;DHT22;12780;45.502;9.146;2023-04-06T07:33:36;10.30;95.80
24645;DHT22;12780;45.502;9.146;2023-04-06T07:36:02;10.40;96.10
24645;DHT22;12780;45.502;9.146;2023-04-06T07:38:28;10.40;95.80
24645;DHT22;12780;45.502;9.146;2023-04-06T07:40:53;10.50;96.50
24645;DHT22;12780;45.502;9.146;2023-04-06T07:43:19;10.60;95.20
24645;DHT22;12780;45.502;9.146;2023-04-06T07:45:44;10.60;95.10
24645;DHT22;12780;45.502;9.146;2023-04-06T07:48:10;10.70;95.40
24645;DHT22;12780;45.502;9.146;2023-04-06T07:50:36;10.70;94.60
24645;DHT22;12780;45.502;9.146;2023-04-06T07:53:02;10.80;95.30
24645;DHT22;12780;45.502;9.146;2023-04-06T07:55:28;10.90;95.70
24645;DHT22;12780;45.502;9.146;2023-04-06T07:57:53;11.00;94.80
24645;DHT22;12780;45.502;9.146;2023-04-06T08:00:20;11.10;94.80
24645;DHT22;12780;45.502;9.146;2023-04-06T08:02:46;11.10;94.20
24645;DHT22;12780;45.502;9.146;2023-04-06T08:05:11;11.20;93.60
24645;DHT22;12780;45.502;9.146;2023-04-06T08:07:37;11.30;93.60
24645;DHT22;12780;45.502;9.146;2023-04-06T08:10:03;11.30;93.90
24645;DHT22;12780;45.502;9.146;2023-04-06T08:12:29;11.40;93.60
24645;DHT22;12780;45.502;9.146;2023-04-06T08:14:55;11.40;93.20
24645;DHT22;12780;45.502;9.146;2023-04-06T08:17:22;11.40;93.80
24645;DHT22;12780;45.502;9.146;2023-04-06T08:19:47;11.40;93.20
24645;DHT22;12780;45.502;9.146;2023-04-06T08:22:13;11.50;92.80
24645;DHT22;12780;45.502;9.146;2023-04-06T08:24:39;11.30;92.70
24645;DHT22;12780;45.502;9.146;2023-04-06T08:27:04;11.50;92.90
24645;DHT22;12780;45.502;9.146;2023-04-06T08:29:30;11.60;93.40
24645;DHT22;12780;45.502;9.146;2023-04-06T08:31:56;11.70;92.90
24645;DHT22;12780;45.502;9.146;2023-04-06T08:34:21;11.70;93.30
24645;DHT22;12780;45.502;9.146;2023-04-06T08:36:48;11.70;92.70
24645;DHT22;12780;45.502;9.146;2023-04-06T08:39:14;11.80;92.80
24645;DHT22;12780;45.502;9.146;2023-04-06T08:41:42;11.80;92.50
24645;DHT22;12780;45.502;9.146;2023-04-06T08:44:08;11.80;92.70
24645;DHT22;12780;45.502;9.146;2023-04-06T08:46:34;11.90;92.80
24645;DHT22;12780;45.502;9.146;2023-04-06T08:49:02;12.00;93.30
24645;DHT22;12780;45.502;9.146;2023-04-06T08:51:29;12.10;93.30
24645;DHT22;12780;45.502;9.146;2023-04-06T08:53:58;12.20;93.20
24645;DHT22;12780;45.502;9.146;2023-04-06T08:56:25;12.30;93.30
24645;DHT22;12780;45.502;9.146;2023-04-06T08:58:52;12.30;93.10
24645;DHT22;12780;45.502;9.146;2023-04-06T09:01:21;12.30;92.70
24645;DHT22;12780;45.502;9.146;2023-04-06T09:03:49;12.40;92.70
24645;DHT22;12780;45.502;9.146;2023-04-06T09:06:15;12.40;93.10
24645;DHT22;12780;45.502;9.146;2023-04-06T09:08:41;12.40;93.30
24645;DHT22;12780;45.502;9.146;2023-04-06T09:11:08;12.50;93.40
24645;DHT22;12780;45.502;9.146;2023-04-06T09:13:54;12.50;93.30
24645;DHT22;12780;45.502;9.146;2023-04-06T09:16:20;12.50;93.10
24645;DHT22;12780;45.502;9.146;2023-04-06T09:18:47;12.60;93.00
24645;DHT22;12780;45.502;9.146;2023-04-06T09:21:13;12.60;93.10
24645;DHT22;12780;45.502;9.146;2023-04-06T09:23:41;12.70;92.90
24645;DHT22;12780;45.502;9.146;2023-04-06T09:26:11;12.60;92.70
24645;DHT22;12780;45.502;9.146;2023-04-06T09:28:57;12.70;92.90
24645;DHT22;12780;45.502;9.146;2023-04-06T09:31:26;12.70;92.80
24645;DHT22;12780;45.502;9.146;2023-04-06T09:33:53;12.70;92.60
24645;DHT22;12780;45.502;9.146;2023-04-06T09:36:19;12.70;92.80
24645;DHT22;12780;45.502;9.146;2023-04-06T09:39:01;12.80;92.90
24645;DHT22;12780;45.502;9.146;2023-04-06T09:41:33;12.70;92.60
24645;DHT22;12780;45.502;9.146;2023-04-06T09:44:13;12.70;92.70
24645;DHT22;12780;45.502;9.146;2023-04-06T09:46:43;12.70;93.30
24645;DHT22;12780;45.502;9.146;2023-04-06T09:49:10;12.80;93.30
24645;DHT22;12780;45.502;9.146;2023-04-06T09:51:40;12.80;93.00
24645;DHT22;12780;45.502;9.146;2023-04-06T09:54:07;12.70;92.90
24645;DHT22;12780;45.502;9.146;2023-04-06T09:59:18;12.80;93.40
24645;DHT22;12780;45.502;9.146;2023-04-06T10:01:48;12.80;93.60
24645;DHT22;12780;45.502;9.146;2023-04-06T10:04:39;12.90;93.40
24645;DHT22;12780;45.502;9.146;2023-04-06T10:07:07;12.80;92.90
24645;DHT22;12780;45.502;9.146;2023-04-06T10:09:35;12.90;93.70
24645;DHT22;12780;45.502;9.146;2023-04-06T10:12:07;12.90;93.40
24645;DHT22;12780;45.502;9.146;2023-04-06T10:14:33;13.00;93.50
24645;DHT22;12780;45.502;9.146;2023-04-06T10:17:03;13.00;93.10
24645;DHT22;12780;45.502;9.146;2023-04-06T10:19:39;13.00;93.70
24645;DHT22;12780;45.502;9.146;2023-04-06T10:22:08;13.00;93.50
24645;DHT22;12780;45.502;9.146;2023-04-06T10:24:35;13.10;93.20
24645;DHT22;12780;45.502;9.146;2023-04-06T10:27:02;13.10;93.00
24645;DHT22;12780;45.502;9.146;2023-04-06T10:29:27;13.00;93.30
24645;DHT22;12780;45.502;9.146;2023-04-06T10:31:53;13.10;93.60
24645;DHT22;12780;45.502;9.146;2023-04-06T10:34:20;13.10;93.60
24645;DHT22;12780;45.502;9.146;2023-04-06T10:36:46;13.10;93.70
24645;DHT22;12780;45.502;9.146;2023-04-06T10:39:12;13.20;94.40
24645;DHT22;12780;45.502;9.146;2023-04-06T10:41:44;13.20;93.70
24645;DHT22;12780;45.502;9.146;2023-04-06T10:44:21;13.30;94.10
24645;DHT22;12780;45.502;9.146;2023-04-06T10:46:55;13.40;93.70
24645;DHT22;12780;45.502;9.146;2023-04-06T10:49:21;13.50;93.80
24645;DHT22;12780;45.502;9.146;2023-04-06T10:51:52;13.60;93.70
24645;DHT22;12780;45.502;9.146;2023-04-06T10:54:21;13.60;93.70
24645;DHT22;12780;45.502;9.146;2023-04-06T10:56:47;13.70;94.20
24645;DHT22;12780;45.502;9.146;2023-04-06T10:59:13;13.70;93.40
24645;DHT22;12780;45.502;9.146;2023-04-06T11:01:44;13.80;93.30
24645;DHT22;12780;45.502;9.146;2023-04-06T11:04:10;13.80;93.30
24645;DHT22;12780;45.502;9.146;2023-04-06T11:06:39;13.90;93.60
24645;DHT22;12780;45.502;9.146;2023-04-06T11:09:04;14.00;93.00
24645;DHT22;12780;45.502;9.146;2023-04-06T11:11:30;14.00;92.90
24645;DHT22;12780;45.502;9.146;2023-04-06T11:13:57;14.00;93.30
24645;DHT22;12780;45.502;9.146;2023-04-06T11:16:29;14.00;92.50
24645;DHT22;12780;45.502;9.146;2023-04-06T11:18:57;14.10;92.60
24645;DHT22;12780;45.502;9.146;2023-04-06T11:21:42;14.00;92.70
24645;DHT22;12780;45.502;9.146;2023-04-06T11:24:18;14.10;93.00
24645;DHT22;12780;45.502;9.146;2023-04-06T11:26:46;14.20;92.80
24645;DHT22;12780;45.502;9.146;2023-04-06T11:29:16;14.30;93.30
24645;DHT22;12780;45.502;9.146;2023-04-06T11:31:50;14.20;92.50
24645;DHT22;12780;45.502;9.146;2023-04-06T11:34:21;14.30;92.70
24645;DHT22;12780;45.502;9.146;2023-04-06T11:36:57;14.30;93.10
24645;DHT22;12780;45.502;9.146;2023-04-06T11:39:25;14.40;93.10
24645;DHT22;12780;45.502;9.146;2023-04-06T11:41:52;14.50;93.00
24645;DHT22;12780;45.502;9.146;2023-04-06T11:44:37;14.50;92.80
24645;DHT22;12780;45.502;9.146;2023-04-06T11:47:06;14.60;93.30
24645;DHT22;12780;45.502;9.146;2023-04-06T11:49:33;14.90;93.30
24645;DHT22;12780;45.502;9.146;2023-04-06T11:52:00;15.10;93.30
24645;DHT22;12780;45.502;9.146;2023-04-06T11:54:36;15.20;93.20
24645;DHT22;12780;45.502;9.146;2023-04-06T11:57:04;15.30;93.10
24645;DHT22;12780;45.502;9.146;2023-04-06T11:59:30;15.40;92.90
24645;DHT22;12780;45.502;9.146;2023-04-06T12:02:00;15.40;92.40
24645;DHT22;12780;45.502;9.146;2023-04-06T12:04:26;15.40;92.70
24645;DHT22;12780;45.502;9.146;2023-04-06T12:06:52;15.50;92.90
24645;DHT22;12780;45.502;9.146;2023-04-06T12:09:17;15.60;92.80
24645;DHT22;12780;45.502;9.146;2023-04-06T12:11:43;15.70;92.60
24645;DHT22;12780;45.502;9.146;2023-04-06T12:14:09;15.80;92.40
24645;DHT22;12780;45.502;9.146;2023-04-06T12:16:35;15.90;92.80
24645;DHT22;12780;45.502;9.146;2023-04-06T12:19:01;16.00;92.70
24645;DHT22;12780;45.502;9.146;2023-04-06T12:21:27;16.00;92.80
24645;DHT22;12780;45.502;9.146;2023-04-06T12:23:54;16.10;93.00
24645;DHT22;12780;45.502;9.146;2023-04-06T12:26:20;16.20;93.00
24645;DHT22;12780;45.502;9.146;2023-04-06T12:28:46;16.20;92.60
24645;DHT22;12780;45.502;9.146;2023-04-06T12:31:16;16.30;92.60
24645;DHT22;12780;45.502;9.146;2023-04-06T12:33:42;16.40;93.10
24645;DHT22;12780;45.502;9.146;2023-04-06T12:36:15;16.30;93.90
24645;DHT22;12780;45.502;9.146;2023-04-06T12:38:41;16.10;92.40
24645;DHT22;12780;45.502;9.146;2023-04-06T12:41:07;16.00;94.30
24645;DHT22;12780;45.502;9.146;2023-04-06T12:43:33;15.90;91.90
24645;DHT22;12780;45.502;9.146;2023-04-06T12:45:59;15.80;93.50
24645;DHT22;12780;45.502;9.146;2023-04-06T12:48:27;15.70;92.50
24645;DHT22;12780;45.502;9.146;2023-04-06T12:51:00;15.80;93.30
24645;DHT22;12780;45.502;9.146;2023-04-06T12:53:26;15.80;92.50
24645;DHT22;12780;45.502;9.146;2023-04-06T12:55:53;15.80;94.00
24645;DHT22;12780;45.502;9.146;2023-04-06T12:58:19;15.90;93.50
24645;DHT22;12780;45.502;9.146;2023-04-06T13:00:46;15.90;93.40
24645;DHT22;12780;45.502;9.146;2023-04-06T13:03:12;15.90;92.70
24645;DHT22;12780;45.502;9.146;2023-04-06T13:05:47;15.90;93.10
24645;DHT22;12780;45.502;9.146;2023-04-06T13:08:14;15.90;93.10
24645;DHT22;12780;45.502;9.146;2023-04-06T13:10:47;15.90;92.90
24645;DHT22;12780;45.502;9.146;2023-04-06T13:13:16;16.00;93.30
24645;DHT22;12780;45.502;9.146;2023-04-06T13:15:42;16.10;93.00
24645;DHT22;12780;45.502;9.146;2023-04-06T13:18:08;16.20;93.80
24645;DHT22;12780;45.502;9.146;2023-04-06T13:20:35;16.30;93.90
24645;DHT22;12780;45.502;9.146;2023-04-06T13:23:01;16.40;93.40
24645;DHT22;12780;45.502;9.146;2023-04-06T13:25:26;16.40;93.10
24645;DHT22;12780;45.502;9.146;2023-04-06T13:27:53;16.50;92.40
24645;DHT22;12780;45.502;9.146;2023-04-06T13:30:19;16.60;92.20
24645;DHT22;12780;45.502;9.146;2023-04-06T13:32:44;16.70;92.40
24645;DHT22;12780;45.502;9.146;2023-04-06T13:35:10;16.70;92.40
24645;DHT22;12780;45.502;9.146;2023-04-06T13:37:38;16.80;93.40
24645;DHT22;12780;45.502;9.146;2023-04-06T13:40:04;16.80;93.10
24645;DHT22;12780;45.502;9.146;2023-04-06T13:42:31;16.80;91.60
24645;DHT22;12780;45.502;9.146;2023-04-06T13:44:57;16.70;92.20
24645;DHT22;12780;45.502;9.146;2023-04-06T13:47:22;16.60;92.00
24645;DHT22;12780;45.502;9.146;2023-04-06T13:49:50;16.70;92.30
24645;DHT22;12780;45.502;9.146;2023-04-06T13:52:16;16.70;91.80
24645;DHT22;12780;45.502;9.146;2023-04-06T13:54:42;16.60;91.40
24645;DHT22;12780;45.502;9.146;2023-04-06T13:57:08;16.50;91.30
24645;DHT22;12780;45.502;9.146;2023-04-06T13:59:36;16.50;91.30
24645;DHT22;12780;45.502;9.146;2023-04-06T14:02:02;16.30;90.80
24645;DHT22;12780;45.502;9.146;2023-04-06T14:04:28;16.30;90.70
24645;DHT22;12780;45.502;9.146;2023-04-06T14:06:54;16.30;90.90
24645;DHT22;12780;45.502;9.146;2023-04-06T14:09:20;16.50;91.20
24645;DHT22;12780;45.502;9.146;2023-04-06T14:11:46;16.20;91.30
24645;DHT22;12780;45.502;9.146;2023-04-06T14:14:11;16.30;91.30
24645;DHT22;12780;45.502;9.146;2023-04-06T14:16:37;16.40;91.10
24645;DHT22;12780;45.502;9.146;2023-04-06T14:19:03;16.30;91.00
24645;DHT22;12780;45.502;9.146;2023-04-06T14:21:29;16.20;91.40
24645;DHT22;12780;45.502;9.146;2023-04-06T14:23:54;16.20;91.30
24645;DHT22;12780;45.502;9.146;2023-04-06T14:26:20;16.20;91.00
24645;DHT22;12780;45.502;9.146;2023-04-06T14:28:46;16.10;90.90
24645;DHT22;12780;45.502;9.146;2023-04-06T14:31:13;16.10;90.70
24645;DHT22;12780;45.502;9.146;2023-04-06T14:33:40;16.20;91.00
24645;DHT22;12780;45.502;9.146;2023-04-06T14:36:07;16.20;90.80
24645;DHT22;12780;45.502;9.146;2023-04-06T14:38:32;16.10;90.00
24645;DHT22;12780;45.502;9.146;2023-04-06T14:40:58;16.10;89.80
24645;DHT22;12780;45.502;9.146;2023-04-06T14:43:23;16.00;90.30
24645;DHT22;12780;45.502;9.146;2023-04-06T14:45:51;16.10;90.40
24645;DHT22;12780;45.502;9.146;2023-04-06T14:48:17;16.30;90.30
24645;DHT22;12780;45.502;9.146;2023-04-06T14:50:56;16.30;89.90
24645;DHT22;12780;45.502;9.146;2023-04-06T14:53:22;16.30;89.00
24645;DHT22;12780;45.502;9.146;2023-04-06T14:55:48;16.30;88.90
24645;DHT22;12780;45.502;9.146;2023-04-06T14:58:17;16.20;89.00
24645;DHT22;12780;45.502;9.146;2023-04-06T15:00:42;16.10;89.20
24645;DHT22;12780;45.502;9.146;2023-04-06T15:03:08;16.10;89.90
24645;DHT22;12780;45.502;9.146;2023-04-06T15:05:34;16.10;89.50
24645;DHT22;12780;45.502;9.146;2023-04-06T15:08:00;16.00;89.80
24645;DHT22;12780;45.502;9.146;2023-04-06T15:10:25;16.10;90.30
24645;DHT22;12780;45.502;9.146;2023-04-06T15:12:51;16.20;90.80
24645;DHT22;12780;45.502;9.146;2023-04-06T15:15:17;16.30;90.60
24645;DHT22;12780;45.502;9.146;2023-04-06T15:17:42;16.40;90.30
24645;DHT22;12780;45.502;9.146;2023-04-06T15:20:08;16.20;90.00
24645;DHT22;12780;45.502;9.146;2023-04-06T15:22:33;16.20;90.10
24645;DHT22;12780;45.502;9.146;2023-04-06T15:24:59;16.20;90.10
24645;DHT22;12780;45.502;9.146;2023-04-06T15:27:25;16.20;90.10
24645;DHT22;12780;45.502;9.146;2023-04-06T15:29:50;16.20;89.80
24645;DHT22;12780;45.502;9.146;2023-04-06T15:32:16;16.10;90.20
24645;DHT22;12780;45.502;9.146;2023-04-06T15:34:41;16.20;90.20
24645;DHT22;12780;45.502;9.146;2023-04-06T15:37:07;16.20;90.60